createdAt,value
2018-07-04T00:00:38.578Z,0.00
2018-07-04T00:01:38.636Z,0.00
2018-07-04T00:02:38.698Z,0.00
2018-07-04T00:03:38.760Z,0.00
2018-07-04T00:04:38.820Z,0.00
2018-07-04T00:05:38.881Z,0.00
2018-07-04T00:06:38.943Z,0.00
2018-07-04T00:07:39.006Z,0.00
2018-07-04T00:08:39.067Z,0.00
2018-07-04T00:09:39.128Z,0.00
2018-07-04T00:10:39.191Z,0.00
2018-07-04T00:11:39.252Z,0.00
2018-07-04T00:12:39.311Z,0.00
2018-07-04T00:13:39.373Z,0.00
2018-07-04T00:14:39.434Z,0.00
2018-07-04T00:15:39.496Z,0.00
2018-07-04T00:16:39.559Z,0.00
2018-07-04T00:17:39.618Z,0.00
2018-07-04T00:18:39.680Z,0.00
2018-07-04T00:19:39.742Z,0.00
2018-07-04T00:20:39.806Z,0.00
2018-07-04T00:21:39.865Z,0.00
2018-07-04T00:22:39.926Z,0.00
2018-07-04T00:23:39.990Z,0.00
2018-07-04T00:24:40.049Z,0.00
2018-07-04T00:25:40.121Z,0.00
2018-07-04T00:26:40.171Z,0.00
2018-07-04T00:27:40.233Z,0.00
2018-07-04T00:28:40.292Z,0.00
2018-07-04T00:29:40.354Z,0.00
2018-07-04T00:30:40.420Z,0.00
2018-07-04T00:31:40.477Z,0.00
2018-07-04T00:32:40.538Z,0.00
2018-07-04T00:33:40.600Z,0.00
2018-07-04T00:34:40.660Z,0.00
2018-07-04T00:35:40.721Z,0.00
2018-07-04T00:36:40.783Z,0.00
2018-07-04T00:37:40.843Z,0.00
2018-07-04T00:38:40.905Z,0.00
2018-07-04T00:39:40.965Z,0.00
2018-07-04T00:40:41.028Z,0.00
2018-07-04T00:41:41.088Z,0.00
2018-07-04T00:42:41.149Z,0.00
2018-07-04T00:43:41.210Z,0.00
2018-07-04T00:44:41.271Z,0.00
2018-07-04T00:45:41.333Z,0.00
2018-07-04T00:46:41.395Z,0.00
2018-07-04T00:47:41.455Z,0.00
2018-07-04T00:48:41.516Z,0.00
2018-07-04T00:49:41.577Z,0.00
2018-07-04T00:50:41.638Z,0.00
2018-07-04T00:51:41.699Z,0.00
2018-07-04T00:52:41.759Z,0.00
2018-07-04T00:53:41.820Z,0.00
2018-07-04T00:54:41.885Z,0.00
2018-07-04T00:55:41.945Z,0.00
2018-07-04T00:56:42.254Z,0.00
2018-07-04T00:57:42.066Z,0.00
2018-07-04T00:58:42.126Z,0.00
2018-07-04T00:59:42.732Z,0.00
2018-07-04T01:00:42.247Z,0.00
2018-07-04T01:01:42.309Z,0.00
2018-07-04T01:02:42.370Z,0.00
2018-07-04T01:03:42.434Z,0.00
2018-07-04T01:04:42.491Z,0.00
2018-07-04T01:05:42.552Z,0.00
2018-07-04T01:06:42.614Z,0.00
2018-07-04T01:07:42.677Z,0.00
2018-07-04T01:08:42.734Z,0.00
2018-07-04T01:09:42.797Z,0.00
2018-07-04T01:10:42.858Z,0.00
2018-07-04T01:11:42.917Z,0.00
2018-07-04T01:12:43.037Z,0.00
2018-07-04T01:13:43.039Z,0.00
2018-07-04T01:14:43.100Z,0.00
2018-07-04T01:15:43.160Z,0.00
2018-07-04T01:16:43.221Z,0.00
2018-07-04T01:17:43.532Z,0.00
2018-07-04T01:18:43.343Z,0.00
2018-07-04T01:19:43.404Z,0.00
2018-07-04T01:20:43.466Z,0.00
2018-07-04T01:21:43.525Z,0.00
2018-07-04T01:22:43.585Z,0.00
2018-07-04T01:23:43.647Z,0.00
2018-07-04T01:24:43.707Z,0.00
2018-07-04T01:25:43.770Z,0.00
2018-07-04T01:26:43.835Z,0.00
2018-07-04T01:27:43.890Z,0.00
2018-07-04T01:28:43.951Z,0.00
2018-07-04T01:29:44.010Z,0.00
2018-07-04T01:30:44.072Z,0.00
2018-07-04T01:31:44.133Z,0.00
2018-07-04T01:32:44.193Z,0.00
2018-07-04T01:33:44.253Z,0.00
2018-07-04T01:34:44.315Z,0.00
2018-07-04T01:35:44.378Z,0.00
2018-07-04T01:36:44.436Z,0.00
2018-07-04T01:37:44.498Z,0.00
2018-07-04T01:38:44.558Z,0.00
2018-07-04T01:39:44.618Z,0.00
2018-07-04T01:40:44.678Z,0.00
2018-07-04T01:41:44.739Z,0.00
2018-07-04T01:42:44.815Z,0.00
2018-07-04T01:43:44.861Z,0.00
2018-07-04T01:44:44.920Z,0.00
2018-07-04T01:45:44.982Z,0.00
2018-07-04T01:46:45.042Z,0.00
2018-07-04T01:47:45.103Z,0.00
2018-07-04T01:48:45.163Z,0.00
2018-07-04T01:49:45.224Z,0.00
2018-07-04T01:50:45.285Z,0.00
2018-07-04T01:51:45.345Z,0.00
2018-07-04T01:52:45.405Z,0.00
2018-07-04T01:53:45.467Z,0.00
2018-07-04T01:54:45.528Z,0.00
2018-07-04T01:55:45.588Z,0.00
2018-07-04T01:56:45.649Z,0.00
2018-07-04T01:57:45.709Z,0.00
2018-07-04T01:58:45.772Z,0.00
2018-07-04T01:59:45.829Z,0.00
2018-07-04T02:00:45.890Z,0.00
2018-07-04T02:01:45.951Z,0.00
2018-07-04T02:02:46.015Z,0.00
2018-07-04T02:03:46.073Z,0.00
2018-07-04T02:04:46.132Z,0.00
2018-07-04T02:05:46.192Z,0.00
2018-07-04T02:06:46.253Z,0.00
2018-07-04T02:07:46.314Z,0.00
2018-07-04T02:08:46.374Z,0.00
2018-07-04T02:09:46.435Z,0.00
2018-07-04T02:10:46.496Z,0.00
2018-07-04T02:11:46.556Z,0.00
2018-07-04T02:12:46.618Z,0.00
2018-07-04T02:13:46.676Z,0.00
2018-07-04T02:14:46.738Z,0.00
2018-07-04T02:15:46.797Z,0.00
2018-07-04T02:16:46.858Z,0.00
2018-07-04T02:17:46.919Z,0.00
2018-07-04T02:18:46.979Z,0.00
2018-07-04T02:19:47.039Z,0.00
2018-07-04T02:20:47.098Z,0.00
2018-07-04T02:21:47.165Z,0.00
2018-07-04T02:22:47.220Z,0.00
2018-07-04T02:23:47.280Z,0.00
2018-07-04T02:24:47.340Z,0.00
2018-07-04T02:25:47.400Z,0.00
2018-07-04T02:26:47.462Z,0.00
2018-07-04T02:27:47.522Z,0.00
2018-07-04T02:32:05.874Z,0.00
2018-07-04T02:33:05.931Z,0.00
2018-07-04T02:34:05.993Z,0.00
2018-07-04T02:35:06.053Z,0.00
2018-07-04T02:36:06.122Z,0.00
2018-07-04T02:38:18.698Z,0.00
2018-07-04T02:39:18.757Z,0.00
2018-07-04T02:40:21.443Z,0.00
2018-07-04T02:41:18.879Z,0.00
2018-07-04T02:42:18.941Z,0.00
2018-07-04T02:44:16.482Z,0.00
2018-07-04T02:45:16.542Z,4.00
2018-07-04T02:47:04.056Z,0.00
2018-07-04T02:48:04.115Z,0.00
2018-07-04T02:49:04.175Z,4.00
2018-07-04T02:50:04.235Z,4.00
2018-07-04T02:51:04.295Z,4.00
2018-07-04T02:52:04.356Z,4.00
2018-07-04T02:53:04.419Z,4.00
2018-07-04T02:54:04.476Z,4.00
2018-07-04T02:55:04.536Z,8.00
2018-07-04T02:56:04.596Z,8.00
2018-07-04T02:57:04.657Z,8.00
2018-07-04T02:58:04.716Z,8.00
2018-07-04T02:59:04.776Z,12.00
2018-07-04T03:00:04.843Z,12.00
2018-07-04T03:01:04.947Z,12.00
2018-07-04T03:02:04.957Z,16.00
2018-07-04T03:03:05.017Z,16.00
2018-07-04T03:04:05.078Z,20.00
2018-07-04T03:05:05.138Z,24.00
2018-07-04T03:06:05.200Z,24.00
2018-07-04T03:07:05.260Z,28.00
2018-07-04T03:08:05.322Z,32.00
2018-07-04T03:09:05.379Z,36.00
2018-07-04T03:10:05.437Z,40.00
2018-07-04T03:11:05.498Z,48.00
2018-07-04T03:12:05.559Z,52.00
2018-07-04T03:13:05.618Z,56.00
2018-07-04T03:14:05.677Z,60.00
2018-07-04T03:15:05.738Z,68.00
2018-07-04T03:16:05.798Z,76.00
2018-07-04T03:17:07.814Z,84.00
2018-07-04T03:18:05.918Z,88.00
2018-07-04T03:19:05.978Z,100.00
2018-07-04T03:20:06.042Z,112.00
2018-07-04T03:21:06.098Z,120.00
2018-07-04T03:22:06.158Z,132.00
2018-07-04T03:23:06.220Z,140.00
2018-07-04T03:24:06.279Z,152.00
2018-07-04T03:25:06.340Z,160.00
2018-07-04T03:26:06.401Z,172.00
2018-07-04T03:27:06.459Z,184.00
2018-07-04T03:28:06.518Z,196.00
2018-07-04T03:29:06.578Z,212.00
2018-07-04T03:30:06.639Z,224.00
2018-07-04T03:31:06.701Z,240.00
2018-07-04T03:32:06.765Z,256.00
2018-07-04T03:33:06.850Z,272.00
2018-07-04T03:34:06.878Z,292.00
2018-07-04T03:35:06.940Z,312.00
2018-07-04T03:36:07.000Z,332.00
2018-07-04T03:37:07.311Z,352.00
2018-07-04T03:38:07.119Z,376.00
2018-07-04T03:39:07.179Z,396.00
2018-07-04T03:40:07.238Z,420.00
2018-07-04T03:41:07.299Z,444.00
2018-07-04T03:42:07.362Z,472.00
2018-07-04T03:43:07.420Z,496.00
2018-07-04T03:44:07.480Z,528.00
2018-07-04T03:45:07.540Z,556.00
2018-07-04T03:46:07.600Z,584.00
2018-07-04T03:47:07.659Z,612.00
2018-07-04T03:48:07.719Z,640.00
2018-07-04T03:49:07.780Z,672.00
2018-07-04T03:50:07.839Z,708.00
2018-07-04T03:51:07.900Z,740.00
2018-07-04T03:52:07.961Z,776.00
2018-07-04T03:53:08.020Z,816.00
2018-07-04T03:54:08.080Z,848.00
2018-07-04T03:55:08.139Z,888.00
2018-07-04T03:56:08.201Z,928.00
2018-07-04T03:57:08.258Z,964.00
2018-07-04T03:58:08.582Z,1008.00
2018-07-04T03:59:08.379Z,1052.00
2018-07-04T04:00:08.442Z,1096.00
2018-07-04T04:01:08.498Z,1136.00
2018-07-04T04:02:08.558Z,1176.00
2018-07-04T04:03:08.770Z,1216.00
2018-07-04T04:04:08.682Z,1252.00
2018-07-04T04:05:08.738Z,1288.00
2018-07-04T04:06:08.799Z,1324.00
2018-07-04T04:07:08.859Z,1364.00
2018-07-04T04:08:08.919Z,1408.00
2018-07-04T04:09:08.981Z,1452.00
2018-07-04T04:10:09.041Z,1492.00
2018-07-04T04:11:09.098Z,1536.00
2018-07-04T04:12:09.162Z,1584.00
2018-07-04T04:13:09.227Z,1628.00
2018-07-04T04:14:09.278Z,1676.00
2018-07-04T04:15:09.341Z,1720.00
2018-07-04T04:16:09.398Z,1764.00
2018-07-04T04:17:09.459Z,1804.00
2018-07-04T04:18:09.518Z,1844.00
2018-07-04T04:19:09.581Z,1888.00
2018-07-04T04:20:09.639Z,1924.00
2018-07-04T04:21:09.699Z,1972.00
2018-07-04T04:22:09.760Z,2012.00
2018-07-04T04:23:09.819Z,2056.00
2018-07-04T04:24:09.879Z,2096.00
2018-07-04T04:25:09.939Z,2144.00
2018-07-04T04:26:09.999Z,2188.00
2018-07-04T04:27:10.110Z,2232.00
2018-07-04T04:28:10.120Z,2276.00
2018-07-04T04:29:10.179Z,2320.00
2018-07-04T04:30:10.247Z,2368.00
2018-07-04T04:31:10.299Z,2416.00
2018-07-04T04:32:10.360Z,2468.00
2018-07-04T04:33:10.419Z,2524.00
2018-07-04T04:34:10.483Z,2580.00
2018-07-04T04:35:10.540Z,2636.00
2018-07-04T04:36:10.601Z,2700.00
2018-07-04T04:37:10.659Z,2768.00
2018-07-04T04:38:10.719Z,2844.00
2018-07-04T04:39:10.780Z,2916.00
2018-07-04T04:40:10.841Z,2988.00
2018-07-04T04:41:10.900Z,3060.00
2018-07-04T04:42:10.960Z,3132.00
2018-07-04T04:43:11.021Z,3196.00
2018-07-04T04:44:11.081Z,3268.00
2018-07-04T04:45:11.140Z,3328.00
2018-07-04T04:46:11.204Z,3384.00
2018-07-04T04:47:11.261Z,3424.00
2018-07-04T04:48:11.322Z,3460.00
2018-07-04T04:49:11.382Z,3488.00
2018-07-04T04:50:11.442Z,3500.00
2018-07-04T04:51:11.502Z,3512.00
2018-07-04T04:52:11.563Z,3528.00
2018-07-04T04:53:11.623Z,3560.00
2018-07-04T04:54:11.685Z,3596.00
2018-07-04T04:55:11.743Z,3632.00
2018-07-04T04:56:11.803Z,3668.00
2018-07-04T04:57:11.864Z,3704.00
2018-07-04T04:58:11.924Z,3736.00
2018-07-04T04:59:11.985Z,3760.00
2018-07-04T05:00:12.044Z,3776.00
2018-07-04T05:01:12.104Z,3796.00
2018-07-04T05:02:12.165Z,3820.00
2018-07-04T05:03:12.226Z,3852.00
2018-07-04T05:04:12.286Z,3880.00
2018-07-04T05:05:12.346Z,3916.00
2018-07-04T05:06:12.405Z,3944.00
2018-07-04T05:07:12.470Z,3976.00
2018-07-04T05:08:12.528Z,4016.00
2018-07-04T05:09:12.588Z,4076.00
2018-07-04T05:10:12.651Z,4136.00
2018-07-04T05:11:12.709Z,4192.00
2018-07-04T05:12:12.770Z,4236.00
2018-07-04T05:13:12.830Z,4272.00
2018-07-04T05:14:12.890Z,4304.00
2018-07-04T05:15:12.952Z,4336.00
2018-07-04T05:16:13.014Z,4364.00
2018-07-04T05:17:13.073Z,4376.00
2018-07-04T05:18:13.133Z,4400.00
2018-07-04T05:19:13.192Z,4432.00
2018-07-04T05:20:13.256Z,4480.00
2018-07-04T05:21:13.314Z,4552.00
2018-07-04T05:22:13.376Z,4656.00
2018-07-04T05:23:13.437Z,4760.00
2018-07-04T05:24:13.497Z,4896.00
2018-07-04T05:25:13.561Z,5056.00
2018-07-04T05:26:13.616Z,5212.00
2018-07-04T05:27:13.680Z,5380.00
2018-07-04T05:28:13.749Z,5516.00
2018-07-04T05:29:13.799Z,5644.00
2018-07-04T05:30:13.860Z,5768.00
2018-07-04T05:31:13.921Z,5908.00
2018-07-04T05:32:13.981Z,6072.00
2018-07-04T05:33:14.043Z,6228.00
2018-07-04T05:34:14.103Z,6368.00
2018-07-04T05:35:14.247Z,6492.00
2018-07-04T05:36:14.226Z,6584.00
2018-07-04T05:37:14.284Z,6656.00
2018-07-04T05:38:14.346Z,6724.00
2018-07-04T05:39:14.406Z,6824.00
2018-07-04T05:40:14.472Z,6940.00
2018-07-04T05:41:14.679Z,7020.00
2018-07-04T05:42:14.590Z,7124.00
2018-07-04T05:43:14.650Z,7236.00
2018-07-04T05:44:14.715Z,7384.00
2018-07-04T05:45:14.772Z,7556.00
2018-07-04T05:46:14.834Z,7736.00
2018-07-04T05:47:14.895Z,7912.00
2018-07-04T05:48:14.960Z,8048.00
2018-07-04T05:49:15.017Z,8140.00
2018-07-04T05:50:15.080Z,8336.00
2018-07-04T05:51:15.139Z,8488.00
2018-07-04T05:52:15.201Z,8588.00
2018-07-04T05:53:15.261Z,8776.00
2018-07-04T05:54:15.324Z,9008.00
2018-07-04T05:55:15.385Z,9252.00
2018-07-04T05:56:15.495Z,9476.00
2018-07-04T05:57:15.507Z,9708.00
2018-07-04T05:58:15.593Z,9900.00
2018-07-04T05:59:15.634Z,10076.00
2018-07-04T06:00:15.695Z,10288.00
2018-07-04T06:01:15.753Z,10540.00
2018-07-04T06:02:15.816Z,10728.00
2018-07-04T06:03:15.877Z,10804.00
2018-07-04T06:04:15.948Z,10812.00
2018-07-04T06:05:15.999Z,10748.00
2018-07-04T06:06:16.063Z,10744.00
2018-07-04T06:07:16.125Z,10828.00
2018-07-04T06:08:16.187Z,10944.00
2018-07-04T06:09:16.248Z,11104.00
2018-07-04T06:10:16.311Z,11276.00
2018-07-04T06:11:16.374Z,11480.00
2018-07-04T06:12:16.434Z,11656.00
2018-07-04T06:13:16.498Z,11860.00
2018-07-04T06:14:16.560Z,12036.00
2018-07-04T06:15:16.622Z,12184.00
2018-07-04T06:16:16.690Z,12328.00
2018-07-04T06:17:16.747Z,12416.00
2018-07-04T06:18:16.810Z,12436.00
2018-07-04T06:19:16.872Z,12476.00
2018-07-04T06:20:16.935Z,12532.00
2018-07-04T06:21:16.998Z,12600.00
2018-07-04T06:22:17.059Z,12668.00
2018-07-04T06:23:17.124Z,12756.00
2018-07-04T06:24:17.185Z,12700.00
2018-07-04T06:25:17.250Z,12548.00
2018-07-04T06:26:17.310Z,12356.00
2018-07-04T06:27:17.374Z,12168.00
2018-07-04T06:28:17.436Z,11896.00
2018-07-04T06:29:17.500Z,11736.00
2018-07-04T06:30:17.563Z,11576.00
2018-07-04T06:31:17.625Z,11532.00
2018-07-04T06:32:17.696Z,11580.00
2018-07-04T06:33:17.752Z,11752.00
2018-07-04T06:34:17.814Z,12028.00
2018-07-04T06:35:17.877Z,12464.00
2018-07-04T06:36:17.941Z,13052.00
2018-07-04T06:37:18.005Z,13672.00
2018-07-04T06:38:18.217Z,14232.00
2018-07-04T06:39:18.131Z,14712.00
2018-07-04T06:40:18.196Z,15032.00
2018-07-04T06:41:18.261Z,15204.00
2018-07-04T06:42:18.323Z,15100.00
2018-07-04T06:43:18.384Z,14944.00
2018-07-04T06:44:18.450Z,14952.00
2018-07-04T06:45:18.513Z,14920.00
2018-07-04T06:46:18.576Z,14888.00
2018-07-04T06:47:18.643Z,14876.00
2018-07-04T06:48:18.704Z,14868.00
2018-07-04T06:49:18.798Z,14924.00
2018-07-04T06:50:18.831Z,15008.00
2018-07-04T06:51:18.896Z,14928.00
2018-07-04T06:52:18.962Z,14664.00
2018-07-04T06:53:19.026Z,14240.00
2018-07-04T06:54:19.124Z,13756.00
2018-07-04T06:55:19.157Z,13280.00
2018-07-04T06:56:19.232Z,12824.00
2018-07-04T06:57:19.284Z,12352.00
2018-07-04T06:58:19.346Z,11816.00
2018-07-04T06:59:19.411Z,11264.00
2018-07-04T07:00:19.477Z,10796.00
2018-07-04T07:01:19.540Z,10368.00
2018-07-04T07:02:19.608Z,10024.00
2018-07-04T07:03:19.669Z,9768.00
2018-07-04T07:04:19.734Z,9612.00
2018-07-04T07:05:19.797Z,9548.00
2018-07-04T07:06:19.862Z,9648.00
2018-07-04T07:07:19.927Z,9812.00
2018-07-04T07:08:20.060Z,10004.00
2018-07-04T07:09:20.055Z,10152.00
2018-07-04T07:10:20.120Z,10296.00
2018-07-04T07:11:20.185Z,10500.00
2018-07-04T07:12:20.250Z,10740.00
2018-07-04T07:13:20.316Z,11004.00
2018-07-04T07:14:20.432Z,11312.00
2018-07-04T07:15:20.448Z,11580.00
2018-07-04T07:16:20.506Z,11812.00
2018-07-04T07:17:20.570Z,12000.00
2018-07-04T07:18:20.635Z,12164.00
2018-07-04T07:19:20.698Z,12288.00
2018-07-04T07:20:20.767Z,12412.00
2018-07-04T07:21:20.828Z,12596.00
2018-07-04T07:22:20.894Z,12840.00
2018-07-04T07:23:20.956Z,13052.00
2018-07-04T07:24:21.022Z,13132.00
2018-07-04T07:25:21.083Z,13300.00
2018-07-04T07:26:21.149Z,13356.00
2018-07-04T07:27:21.213Z,13252.00
2018-07-04T07:28:21.279Z,13080.00
2018-07-04T07:29:21.340Z,12984.00
2018-07-04T07:30:21.406Z,12936.00
2018-07-04T07:31:21.470Z,12788.00
2018-07-04T07:32:21.535Z,12596.00
2018-07-04T07:33:21.599Z,12428.00
2018-07-04T07:34:21.838Z,12332.00
2018-07-04T07:35:21.728Z,12224.00
2018-07-04T07:36:21.792Z,12284.00
2018-07-04T07:37:21.857Z,12424.00
2018-07-04T07:38:21.921Z,12676.00
2018-07-04T07:39:21.985Z,13024.00
2018-07-04T07:40:22.049Z,13304.00
2018-07-04T07:41:22.114Z,13588.00
2018-07-04T07:42:22.180Z,13836.00
2018-07-04T07:43:22.244Z,14052.00
2018-07-04T07:44:22.307Z,14112.00
2018-07-04T07:45:22.371Z,14176.00
2018-07-04T07:46:22.436Z,14244.00
2018-07-04T07:47:22.505Z,14472.00
2018-07-04T07:48:22.566Z,15008.00
2018-07-04T07:49:22.629Z,15712.00
2018-07-04T07:50:22.694Z,16220.00
2018-07-04T07:51:22.762Z,16416.00
2018-07-04T07:52:22.824Z,16832.00
2018-07-04T07:53:22.892Z,17288.00
2018-07-04T07:54:23.008Z,17888.00
2018-07-04T07:55:23.018Z,18144.00
2018-07-04T07:56:23.085Z,18368.00
2018-07-04T07:57:23.149Z,18496.00
2018-07-04T07:58:23.213Z,18624.00
2018-07-04T07:59:23.280Z,18752.00
2018-07-04T08:00:23.344Z,18912.00
2018-07-04T08:01:23.412Z,19136.00
2018-07-04T08:02:23.475Z,19264.00
2018-07-04T08:03:23.540Z,19296.00
2018-07-04T08:04:23.606Z,19296.00
2018-07-04T08:05:23.673Z,19200.00
2018-07-04T08:06:23.739Z,18912.00
2018-07-04T08:07:23.803Z,18464.00
2018-07-04T08:08:23.870Z,17792.00
2018-07-04T08:09:23.933Z,16716.00
2018-07-04T08:10:24.000Z,15796.00
2018-07-04T08:11:24.067Z,14920.00
2018-07-04T08:12:24.132Z,13988.00
2018-07-04T08:13:24.197Z,13236.00
2018-07-04T08:14:24.267Z,12688.00
2018-07-04T08:15:24.330Z,12388.00
2018-07-04T08:16:24.397Z,12268.00
2018-07-04T08:17:24.463Z,12260.00
2018-07-04T08:18:24.526Z,12244.00
2018-07-04T08:19:24.594Z,12248.00
2018-07-04T08:20:24.661Z,12304.00
2018-07-04T08:21:24.726Z,12336.00
2018-07-04T08:22:24.791Z,12316.00
2018-07-04T08:23:24.859Z,12416.00
2018-07-04T08:24:24.925Z,12608.00
2018-07-04T08:25:24.989Z,12780.00
2018-07-04T08:26:25.138Z,12984.00
2018-07-04T08:27:25.120Z,13192.00
2018-07-04T08:28:25.188Z,13556.00
2018-07-04T08:29:25.252Z,14116.00
2018-07-04T08:30:25.318Z,14768.00
2018-07-04T08:31:25.383Z,15556.00
2018-07-04T08:32:25.451Z,16136.00
2018-07-04T08:33:25.522Z,16688.00
2018-07-04T08:34:25.581Z,17048.00
2018-07-04T08:35:25.651Z,17348.00
2018-07-04T08:36:25.717Z,17588.00
2018-07-04T08:37:25.778Z,17728.00
2018-07-04T08:38:25.846Z,18028.00
2018-07-04T08:39:25.912Z,17824.00
2018-07-04T08:40:25.982Z,17744.00
2018-07-04T08:41:26.045Z,17364.00
2018-07-04T08:42:26.110Z,16824.00
2018-07-04T08:43:26.178Z,16704.00
2018-07-04T08:44:26.244Z,16412.00
2018-07-04T08:45:26.311Z,16180.00
2018-07-04T08:46:26.377Z,16016.00
2018-07-04T08:47:26.444Z,15904.00
2018-07-04T08:48:26.511Z,15872.00
2018-07-04T08:49:26.579Z,15880.00
2018-07-04T08:50:26.643Z,16064.00
2018-07-04T08:51:26.710Z,16440.00
2018-07-04T08:52:26.782Z,16720.00
2018-07-04T08:53:26.842Z,16676.00
2018-07-04T08:54:26.908Z,16448.00
2018-07-04T08:55:26.976Z,16184.00
2018-07-04T08:56:27.045Z,15940.00
2018-07-04T08:57:27.109Z,15688.00
2018-07-04T08:58:27.269Z,15740.00
2018-07-04T08:59:27.243Z,15816.00
2018-07-04T09:00:27.311Z,15888.00
2018-07-04T09:01:27.378Z,16024.00
2018-07-04T09:02:27.446Z,16168.00
2018-07-04T09:03:27.513Z,16336.00
2018-07-04T09:04:27.579Z,16464.00
2018-07-04T09:05:27.665Z,16580.00
2018-07-04T09:06:27.713Z,16620.00
2018-07-04T09:07:27.781Z,16644.00
2018-07-04T09:08:27.848Z,16620.00
2018-07-04T09:09:27.914Z,17044.00
2018-07-04T09:10:27.983Z,17940.00
2018-07-04T09:11:28.104Z,17948.00
2018-07-04T09:12:28.118Z,17420.00
2018-07-04T09:13:28.190Z,16468.00
2018-07-04T09:14:28.252Z,15760.00
2018-07-04T09:15:28.320Z,15204.00
2018-07-04T09:16:28.390Z,14708.00
2018-07-04T09:17:28.457Z,14288.00
2018-07-04T09:18:28.522Z,14096.00
2018-07-04T09:19:28.591Z,13748.00
2018-07-04T09:20:28.657Z,13264.00
2018-07-04T09:21:28.726Z,12908.00
2018-07-04T09:22:28.792Z,12740.00
2018-07-04T09:23:28.859Z,12756.00
2018-07-04T09:24:28.938Z,12876.00
2018-07-04T09:25:28.995Z,13112.00
2018-07-04T09:26:29.062Z,13480.00
2018-07-04T09:27:29.128Z,13940.00
2018-07-04T09:28:29.197Z,14300.00
2018-07-04T09:29:29.560Z,14372.00
2018-07-04T09:30:29.329Z,14188.00
2018-07-04T09:31:29.397Z,13912.00
2018-07-04T09:32:29.464Z,13888.00
2018-07-04T09:33:29.530Z,14064.00
2018-07-04T09:34:29.604Z,14400.00
2018-07-04T09:35:29.665Z,14892.00
2018-07-04T09:36:29.731Z,15460.00
2018-07-04T09:37:29.798Z,16056.00
2018-07-04T09:38:30.012Z,16588.00
2018-07-04T09:39:29.932Z,17060.00
2018-07-04T09:40:29.999Z,17408.00
2018-07-04T09:41:30.067Z,17704.00
2018-07-04T09:42:30.133Z,17932.00
2018-07-04T09:43:30.200Z,17840.00
2018-07-04T09:44:30.266Z,17512.00
2018-07-04T09:45:30.333Z,17268.00
2018-07-04T09:46:30.404Z,17304.00
2018-07-04T09:47:30.468Z,17544.00
2018-07-04T09:48:30.537Z,17716.00
2018-07-04T09:49:30.637Z,18304.00
2018-07-04T09:50:30.671Z,18976.00
2018-07-04T09:51:30.740Z,19584.00
2018-07-04T09:52:30.805Z,19808.00
2018-07-04T09:53:30.870Z,19840.00
2018-07-04T09:54:30.940Z,20064.00
2018-07-04T09:55:31.005Z,20448.00
2018-07-04T09:56:31.075Z,20736.00
2018-07-04T09:57:31.140Z,20800.00
2018-07-04T09:58:31.207Z,21152.00
2018-07-04T09:59:31.275Z,21760.00
2018-07-04T10:00:31.344Z,22304.00
2018-07-04T10:01:31.411Z,22880.00
2018-07-04T10:02:31.478Z,23808.00
2018-07-04T10:03:31.550Z,24576.00
2018-07-04T10:04:31.618Z,24288.00
2018-07-04T10:05:31.682Z,23552.00
2018-07-04T10:06:31.750Z,23200.00
2018-07-04T10:07:31.817Z,23392.00
2018-07-04T10:08:31.885Z,23936.00
2018-07-04T10:09:31.955Z,35040.00
2018-07-04T10:10:32.024Z,26592.00
2018-07-04T10:11:32.243Z,47392.00
2018-07-04T10:12:32.488Z,36768.00
2018-07-04T10:13:32.732Z,38784.00
2018-07-04T10:14:32.901Z,60736.00
2018-07-04T10:15:33.063Z,62240.00
2018-07-04T10:16:32.434Z,62464.00
2018-07-04T10:17:32.503Z,60416.00
2018-07-04T10:18:32.573Z,63680.00
2018-07-04T10:19:32.643Z,64992.00
2018-07-04T10:20:32.712Z,67360.00
2018-07-04T10:21:32.782Z,68960.00
2018-07-04T10:22:32.853Z,70016.00
2018-07-04T10:24:33.028Z,67392.00
2018-07-04T10:25:33.070Z,65728.00
2018-07-04T10:26:33.136Z,65600.00
2018-07-04T10:27:33.208Z,63104.00
2018-07-04T10:28:33.280Z,64640.00
2018-07-04T10:29:33.352Z,63488.00
2018-07-04T10:30:33.425Z,60032.00
2018-07-04T10:31:33.497Z,56384.00
2018-07-04T10:32:33.571Z,50368.00
2018-07-04T10:33:33.642Z,50848.00
2018-07-04T10:34:33.715Z,60704.00
2018-07-04T10:35:33.789Z,67904.00
2018-07-04T10:36:33.862Z,69088.00
2018-07-04T10:37:33.935Z,72608.00
2018-07-04T10:38:34.008Z,74720.00
2018-07-04T10:39:34.082Z,76512.00
2018-07-04T10:40:34.154Z,66752.00
2018-07-04T10:41:34.227Z,59008.00
2018-07-04T10:42:34.302Z,37856.00
2018-07-04T10:43:34.375Z,45248.00
2018-07-04T10:44:34.448Z,36480.00
2018-07-04T10:45:34.524Z,27872.00
2018-07-04T10:46:34.595Z,25120.00
2018-07-04T10:47:34.668Z,20480.00
2018-07-04T10:48:34.742Z,19648.00
2018-07-04T10:49:34.814Z,19040.00
2018-07-04T10:50:34.886Z,18496.00
2018-07-04T10:51:34.960Z,17440.00
2018-07-04T10:52:35.032Z,18240.00
2018-07-04T10:53:35.104Z,18816.00
2018-07-04T10:54:35.175Z,19488.00
2018-07-04T10:55:35.372Z,20032.00
2018-07-04T10:56:35.319Z,20416.00
2018-07-04T10:57:35.389Z,20544.00
2018-07-04T10:58:35.522Z,20640.00
2018-07-04T10:59:35.531Z,20352.00
2018-07-04T11:00:35.607Z,19744.00
2018-07-04T11:01:35.677Z,19456.00
2018-07-04T11:02:35.744Z,19232.00
2018-07-04T11:03:35.815Z,19264.00
2018-07-04T11:04:35.950Z,19744.00
2018-07-04T11:05:35.957Z,20544.00
2018-07-04T11:06:36.027Z,21312.00
2018-07-04T11:07:36.097Z,21792.00
2018-07-04T11:08:36.167Z,22080.00
2018-07-04T11:09:36.237Z,22400.00
2018-07-04T11:10:36.307Z,22656.00
2018-07-04T11:11:36.379Z,22720.00
2018-07-04T11:12:36.448Z,22624.00
2018-07-04T11:13:36.519Z,22528.00
2018-07-04T11:14:36.591Z,22432.00
2018-07-04T11:15:36.656Z,22368.00
2018-07-04T11:16:36.727Z,22400.00
2018-07-04T11:17:36.796Z,22432.00
2018-07-04T11:18:36.868Z,22464.00
2018-07-04T11:19:36.937Z,22432.00
2018-07-04T11:20:37.006Z,22400.00
2018-07-04T11:21:37.079Z,22400.00
2018-07-04T11:22:37.174Z,22432.00
2018-07-04T11:23:37.215Z,22432.00
2018-07-04T11:24:37.291Z,22464.00
2018-07-04T11:25:37.358Z,22496.00
2018-07-04T11:26:37.425Z,22560.00
2018-07-04T11:27:37.494Z,22592.00
2018-07-04T11:28:37.566Z,22688.00
2018-07-04T11:29:37.633Z,22752.00
2018-07-04T11:30:37.702Z,22880.00
2018-07-04T11:31:37.773Z,22976.00
2018-07-04T11:32:37.843Z,23072.00
2018-07-04T11:33:37.912Z,23200.00
2018-07-04T11:34:37.982Z,23424.00
2018-07-04T11:35:38.052Z,23616.00
2018-07-04T11:36:38.121Z,23840.00
2018-07-04T11:37:38.189Z,24064.00
2018-07-04T11:38:38.259Z,24320.00
2018-07-04T11:39:38.329Z,24576.00
2018-07-04T11:40:38.399Z,24832.00
2018-07-04T11:41:38.469Z,25152.00
2018-07-04T11:42:38.537Z,25408.00
2018-07-04T11:43:38.605Z,25664.00
2018-07-04T11:44:38.676Z,25888.00
2018-07-04T11:45:38.744Z,26208.00
2018-07-04T11:46:38.814Z,26560.00
2018-07-04T11:47:38.884Z,26912.00
2018-07-04T11:48:38.953Z,27136.00
2018-07-04T11:49:39.081Z,27008.00
2018-07-04T11:50:39.092Z,26752.00
2018-07-04T11:51:39.190Z,26784.00
2018-07-04T11:52:39.234Z,26848.00
2018-07-04T11:53:39.300Z,26880.00
2018-07-04T11:54:39.381Z,26912.00
2018-07-04T11:55:39.441Z,26944.00
2018-07-04T11:56:39.508Z,26560.00
2018-07-04T11:57:39.578Z,25600.00
2018-07-04T11:58:39.649Z,23328.00
2018-07-04T11:59:39.718Z,20160.00
2018-07-04T12:00:39.785Z,17728.00
2018-07-04T12:01:39.874Z,16552.00
2018-07-04T12:02:39.926Z,16208.00
2018-07-04T12:03:39.996Z,15652.00
2018-07-04T12:04:40.064Z,13484.00
2018-07-04T12:05:40.134Z,10760.00
2018-07-04T12:06:40.202Z,8320.00
2018-07-04T12:07:40.271Z,6164.00
2018-07-04T12:08:40.340Z,4836.00
2018-07-04T12:09:40.427Z,4252.00
2018-07-04T12:10:40.477Z,3952.00
2018-07-04T12:11:40.548Z,3876.00
2018-07-04T12:12:40.634Z,4028.00
2018-07-04T12:13:40.682Z,4372.00
2018-07-04T12:14:40.753Z,4772.00
2018-07-04T12:15:40.821Z,5296.00
2018-07-04T12:16:40.888Z,6048.00
2018-07-04T12:17:40.956Z,6848.00
2018-07-04T12:18:41.022Z,7696.00
2018-07-04T12:19:41.092Z,7772.00
2018-07-04T12:20:41.243Z,7752.00